sensor_id;sensor_type;location;lat;lon;timestamp;temperature;humidity
262;DHT22;114;48.260;10.988;2024-01-15T00:01:34;-2.00;1.00
262;DHT22;114;48.260;10.988;2024-01-15T00:04:00;-2.10;1.00
262;DHT22;114;48.260;10.988;2024-01-15T00:06:25;-1.70;1.00
262;DHT22;114;48.260;10.988;2024-01-15T00:08:52;-1.50;1.00
262;DHT22;114;48.260;10.988;2024-01-15T00:11:19;-1.70;1.00
262;DHT22;114;48.260;10.988;2024-01-15T00:13:45;-2.00;1.00
262;DHT22;114;48.260;10.988;2024-01-15T00:16:10;-1.60;1.00
262;DHT22;114;48.260;10.988;2024-01-15T00:18:36;-1.50;1.00
262;DHT22;114;48.260;10.988;2024-01-15T00:21:01;-1.50;1.00
262;DHT22;114;48.260;10.988;2024-01-15T00:23:27;-1.20;1.00
262;DHT22;114;48.260;10.988;2024-01-15T00:25:53;-1.40;1.00
262;DHT22;114;48.260;10.988;2024-01-15T00:28:19;-1.20;1.00
262;DHT22;114;48.260;10.988;2024-01-15T00:30:45;-1.30;1.00
262;DHT22;114;48.260;10.988;2024-01-15T00:33:12;-1.30;1.00
262;DHT22;114;48.260;10.988;2024-01-15T00:35:38;-1.30;1.00
262;DHT22;114;48.260;10.988;2024-01-15T00:38:04;-1.40;1.00
262;DHT22;114;48.260;10.988;2024-01-15T00:40:30;-1.30;1.00
262;DHT22;114;48.260;10.988;2024-01-15T00:42:56;-1.60;1.00
262;DHT22;114;48.260;10.988;2024-01-15T00:45:21;-1.70;1.00
262;DHT22;114;48.260;10.988;2024-01-15T00:47:47;-1.70;1.00
262;DHT22;114;48.260;10.988;2024-01-15T00:50:13;-1.30;1.00
262;DHT22;114;48.260;10.988;2024-01-15T00:52:38;-1.70;1.00
262;DHT22;114;48.260;10.988;2024-01-15T00:55:04;-1.30;1.00
262;DHT22;114;48.260;10.988;2024-01-15T00:57:30;-1.70;1.00
262;DHT22;114;48.260;10.988;2024-01-15T00:59:56;-1.40;1.00
262;DHT22;114;48.260;10.988;2024-01-15T01:02:23;-1.50;1.00
262;DHT22;114;48.260;10.988;2024-01-15T01:04:48;-1.50;1.00
262;DHT22;114;48.260;10.988;2024-01-15T01:07:15;-1.80;1.00
262;DHT22;114;48.260;10.988;2024-01-15T01:09:40;-2.10;1.00
262;DHT22;114;48.260;10.988;2024-01-15T01:12:06;-2.10;1.00
262;DHT22;114;48.260;10.988;2024-01-15T01:14:32;-1.70;1.00
262;DHT22;114;48.260;10.988;2024-01-15T01:16:58;-2.10;1.00
262;DHT22;114;48.260;10.988;2024-01-15T01:19:23;-2.00;1.00
262;DHT22;114;48.260;10.988;2024-01-15T01:21:51;-1.70;1.00
262;DHT22;114;48.260;10.988;2024-01-15T01:24:17;-1.50;1.00
262;DHT22;114;48.260;10.988;2024-01-15T01:26:43;-1.80;1.00
262;DHT22;114;48.260;10.988;2024-01-15T01:29:09;-1.80;1.00
262;DHT22;114;48.260;10.988;2024-01-15T01:31:35;-1.60;1.00
262;DHT22;114;48.260;10.988;2024-01-15T01:34:01;-1.90;1.00
262;DHT22;114;48.260;10.988;2024-01-15T01:36:26;-1.90;1.00
262;DHT22;114;48.260;10.988;2024-01-15T01:38:52;-1.80;1.00
262;DHT22;114;48.260;10.988;2024-01-15T01:41:17;-2.00;1.00
262;DHT22;114;48.260;10.988;2024-01-15T01:43:44;-2.50;1.00
262;DHT22;114;48.260;10.988;2024-01-15T01:46:10;-2.00;1.00
262;DHT22;114;48.260;10.988;2024-01-15T01:48:38;-2.00;1.00
262;DHT22;114;48.260;10.988;2024-01-15T01:51:04;-1.90;1.00
262;DHT22;114;48.260;10.988;2024-01-15T01:53:32;-2.00;1.00
262;DHT22;114;48.260;10.988;2024-01-15T01:55:59;-1.90;1.00
262;DHT22;114;48.260;10.988;2024-01-15T01:58:25;-2.50;1.00
262;DHT22;114;48.260;10.988;2024-01-15T02:00:52;-2.30;1.00
262;DHT22;114;48.260;10.988;2024-01-15T02:03:19;-2.30;1.00
262;DHT22;114;48.260;10.988;2024-01-15T02:05:46;-1.80;1.00
262;DHT22;114;48.260;10.988;2024-01-15T02:08:14;-2.60;1.00
262;DHT22;114;48.260;10.988;2024-01-15T02:10:41;-2.60;1.00
262;DHT22;114;48.260;10.988;2024-01-15T02:13:07;-2.30;1.00
262;DHT22;114;48.260;10.988;2024-01-15T02:15:33;-1.90;1.00
262;DHT22;114;48.260;10.988;2024-01-15T02:18:00;-2.50;1.00
262;DHT22;114;48.260;10.988;2024-01-15T02:20:26;-2.00;1.00
262;DHT22;114;48.260;10.988;2024-01-15T02:22:53;-2.00;1.00
262;DHT22;114;48.260;10.988;2024-01-15T02:25:19;-2.30;1.00
262;DHT22;114;48.260;10.988;2024-01-15T02:27:45;-2.00;1.00
262;DHT22;114;48.260;10.988;2024-01-15T02:30:12;-2.20;1.00
262;DHT22;114;48.260;10.988;2024-01-15T02:32:38;-2.00;1.00
262;DHT22;114;48.260;10.988;2024-01-15T02:35:05;-1.80;1.00
262;DHT22;114;48.260;10.988;2024-01-15T02:37:31;-1.70;1.00
262;DHT22;114;48.260;10.988;2024-01-15T02:39:56;-1.90;1.00
262;DHT22;114;48.260;10.988;2024-01-15T02:42:22;-1.90;1.00
262;DHT22;114;48.260;10.988;2024-01-15T02:44:47;-1.70;1.00
262;DHT22;114;48.260;10.988;2024-01-15T02:47:15;-2.30;1.00
262;DHT22;114;48.260;10.988;2024-01-15T02:49:41;-2.00;1.00
262;DHT22;114;48.260;10.988;2024-01-15T02:52:07;-1.80;1.00
262;DHT22;114;48.260;10.988;2024-01-15T02:54:33;-2.60;1.00
262;DHT22;114;48.260;10.988;2024-01-15T02:56:59;-2.10;1.00
262;DHT22;114;48.260;10.988;2024-01-15T02:59:24;-2.40;1.00
262;DHT22;114;48.260;10.988;2024-01-15T03:01:50;-2.70;1.00
262;DHT22;114;48.260;10.988;2024-01-15T03:04:16;-2.20;1.00
262;DHT22;114;48.260;10.988;2024-01-15T03:06:41;-2.20;1.00
262;DHT22;114;48.260;10.988;2024-01-15T03:09:07;-2.20;1.00
262;DHT22;114;48.260;10.988;2024-01-15T03:11:39;-2.20;1.00
262;DHT22;114;48.260;10.988;2024-01-15T03:14:05;-2.30;1.00
262;DHT22;114;48.260;10.988;2024-01-15T03:16:30;-2.00;1.00
262;DHT22;114;48.260;10.988;2024-01-15T03:18:56;-2.20;1.00
262;DHT22;114;48.260;10.988;2024-01-15T03:21:22;-2.30;1.00
262;DHT22;114;48.260;10.988;2024-01-15T03:23:48;-2.70;1.00
262;DHT22;114;48.260;10.988;2024-01-15T03:26:13;-2.30;1.00
262;DHT22;114;48.260;10.988;2024-01-15T03:28:39;-2.00;1.00
262;DHT22;114;48.260;10.988;2024-01-15T03:31:04;-2.70;1.00
262;DHT22;114;48.260;10.988;2024-01-15T03:33:31;-2.60;1.00
262;DHT22;114;48.260;10.988;2024-01-15T03:35:57;-2.30;1.00
262;DHT22;114;48.260;10.988;2024-01-15T03:38:23;-2.80;1.00
262;DHT22;114;48.260;10.988;2024-01-15T03:40:49;-2.40;1.00
262;DHT22;114;48.260;10.988;2024-01-15T03:43:14;-2.30;1.00
262;DHT22;114;48.260;10.988;2024-01-15T03:45:40;-2.70;1.00
262;DHT22;114;48.260;10.988;2024-01-15T03:48:06;-2.50;1.00
262;DHT22;114;48.260;10.988;2024-01-15T03:50:31;-2.80;1.00
262;DHT22;114;48.260;10.988;2024-01-15T03:52:57;-2.50;1.00
262;DHT22;114;48.260;10.988;2024-01-15T03:55:23;-2.50;1.00
262;DHT22;114;48.260;10.988;2024-01-15T03:57:48;-2.50;1.00
262;DHT22;114;48.260;10.988;2024-01-15T04:00:15;-2.50;1.00
262;DHT22;114;48.260;10.988;2024-01-15T04:02:43;-2.50;1.00
262;DHT22;114;48.260;10.988;2024-01-15T04:05:09;-3.00;1.00
262;DHT22;114;48.260;10.988;2024-01-15T04:07:35;-2.50;1.00
262;DHT22;114;48.260;10.988;2024-01-15T04:10:01;-2.50;1.00
262;DHT22;114;48.260;10.988;2024-01-15T04:12:27;-2.40;1.00
262;DHT22;114;48.260;10.988;2024-01-15T04:14:53;-2.30;1.00
262;DHT22;114;48.260;10.988;2024-01-15T04:17:19;-2.70;1.00
262;DHT22;114;48.260;10.988;2024-01-15T04:19:46;-2.80;1.00
262;DHT22;114;48.260;10.988;2024-01-15T04:22:13;-2.50;1.00
262;DHT22;114;48.260;10.988;2024-01-15T04:24:39;-2.50;1.00
262;DHT22;114;48.260;10.988;2024-01-15T04:27:06;-2.20;1.00
262;DHT22;114;48.260;10.988;2024-01-15T04:29:33;-2.50;1.00
262;DHT22;114;48.260;10.988;2024-01-15T04:31:59;-2.20;1.00
262;DHT22;114;48.260;10.988;2024-01-15T04:34:25;-2.20;1.00
262;DHT22;114;48.260;10.988;2024-01-15T04:36:52;-2.50;1.00
262;DHT22;114;48.260;10.988;2024-01-15T04:39:18;-2.50;1.00
262;DHT22;114;48.260;10.988;2024-01-15T04:41:43;-2.20;1.00
262;DHT22;114;48.260;10.988;2024-01-15T04:44:10;-2.20;1.00
262;DHT22;114;48.260;10.988;2024-01-15T04:46:36;-2.20;1.00
262;DHT22;114;48.260;10.988;2024-01-15T04:49:01;-2.20;1.00
262;DHT22;114;48.260;10.988;2024-01-15T04:51:27;-2.30;1.00
262;DHT22;114;48.260;10.988;2024-01-15T04:53:53;-2.80;1.00
262;DHT22;114;48.260;10.988;2024-01-15T04:56:19;-2.30;1.00
262;DHT22;114;48.260;10.988;2024-01-15T04:58:45;-2.40;1.00
262;DHT22;114;48.260;10.988;2024-01-15T05:01:10;-2.80;1.00
262;DHT22;114;48.260;10.988;2024-01-15T05:03:36;-2.30;1.00
262;DHT22;114;48.260;10.988;2024-01-15T05:06:02;-2.90;1.00
262;DHT22;114;48.260;10.988;2024-01-15T05:08:28;-2.20;1.00
262;DHT22;114;48.260;10.988;2024-01-15T05:10:53;-2.60;1.00
262;DHT22;114;48.260;10.988;2024-01-15T05:13:20;-2.10;1.00
262;DHT22;114;48.260;10.988;2024-01-15T05:15:46;-2.30;1.00
262;DHT22;114;48.260;10.988;2024-01-15T05:18:11;-1.90;1.00
262;DHT22;114;48.260;10.988;2024-01-15T05:20:37;-2.50;1.00
262;DHT22;114;48.260;10.988;2024-01-15T05:23:03;-2.00;1.00
262;DHT22;114;48.260;10.988;2024-01-15T05:25:29;-1.90;1.00
262;DHT22;114;48.260;10.988;2024-01-15T05:27:54;-2.40;1.00
262;DHT22;114;48.260;10.988;2024-01-15T05:30:20;-1.90;1.00
262;DHT22;114;48.260;10.988;2024-01-15T05:32:45;-1.90;1.00
262;DHT22;114;48.260;10.988;2024-01-15T05:35:11;-1.60;1.00
262;DHT22;114;48.260;10.988;2024-01-15T05:37:37;-2.40;1.00
262;DHT22;114;48.260;10.988;2024-01-15T05:40:02;-2.20;1.00
262;DHT22;114;48.260;10.988;2024-01-15T05:42:30;-1.80;1.00
262;DHT22;114;48.260;10.988;2024-01-15T05:44:57;-1.80;1.00
262;DHT22;114;48.260;10.988;2024-01-15T05:47:26;-1.80;1.00
262;DHT22;114;48.260;10.988;2024-01-15T05:49:51;-1.70;1.00
262;DHT22;114;48.260;10.988;2024-01-15T05:52:17;-1.70;1.00
262;DHT22;114;48.260;10.988;2024-01-15T05:54:44;-1.70;1.00
262;DHT22;114;48.260;10.988;2024-01-15T05:57:09;-1.70;1.00
262;DHT22;114;48.260;10.988;2024-01-15T05:59:35;-1.70;1.00
262;DHT22;114;48.260;10.988;2024-01-15T06:02:01;-1.60;1.00
262;DHT22;114;48.260;10.988;2024-01-15T06:04:27;-2.00;1.00
262;DHT22;114;48.260;10.988;2024-01-15T06:06:52;-1.90;1.00
262;DHT22;114;48.260;10.988;2024-01-15T06:09:18;-1.60;1.00
262;DHT22;114;48.260;10.988;2024-01-15T06:11:44;-1.30;1.00
262;DHT22;114;48.260;10.988;2024-01-15T06:14:09;-1.20;1.00
262;DHT22;114;48.260;10.988;2024-01-15T06:16:35;-1.10;1.00
262;DHT22;114;48.260;10.988;2024-01-15T06:19:00;-1.30;1.00
262;DHT22;114;48.260;10.988;2024-01-15T06:21:26;-1.40;1.00
262;DHT22;114;48.260;10.988;2024-01-15T06:23:52;-1.40;1.00
262;DHT22;114;48.260;10.988;2024-01-15T06:26:17;-1.70;1.00
262;DHT22;114;48.260;10.988;2024-01-15T06:28:43;-1.80;1.00
262;DHT22;114;48.260;10.988;2024-01-15T06:31:09;-1.30;1.00
262;DHT22;114;48.260;10.988;2024-01-15T06:33:34;-1.40;1.00
262;DHT22;114;48.260;10.988;2024-01-15T06:36:00;-1.40;1.00
262;DHT22;114;48.260;10.988;2024-01-15T06:38:25;-1.40;1.00
262;DHT22;114;48.260;10.988;2024-01-15T06:40:51;-1.40;1.00
262;DHT22;114;48.260;10.988;2024-01-15T06:43:17;-1.40;1.00
262;DHT22;114;48.260;10.988;2024-01-15T06:45:44;-1.30;1.00
262;DHT22;114;48.260;10.988;2024-01-15T06:48:09;-1.50;1.00
262;DHT22;114;48.260;10.988;2024-01-15T06:50:35;-1.50;1.00
262;DHT22;114;48.260;10.988;2024-01-15T06:53:01;-1.50;1.00
262;DHT22;114;48.260;10.988;2024-01-15T06:55:27;-1.50;1.00
262;DHT22;114;48.260;10.988;2024-01-15T06:57:53;-1.50;1.00
262;DHT22;114;48.260;10.988;2024-01-15T07:00:19;-1.40;1.00
262;DHT22;114;48.260;10.988;2024-01-15T07:02:48;-1.40;1.00
262;DHT22;114;48.260;10.988;2024-01-15T07:05:14;-1.40;1.00
262;DHT22;114;48.260;10.988;2024-01-15T07:07:40;-1.30;1.00
262;DHT22;114;48.260;10.988;2024-01-15T07:10:06;-1.40;1.00
262;DHT22;114;48.260;10.988;2024-01-15T07:12:32;-1.30;1.00
262;DHT22;114;48.260;10.988;2024-01-15T07:14:58;-1.20;1.00
262;DHT22;114;48.260;10.988;2024-01-15T07:17:24;-1.30;1.00
262;DHT22;114;48.260;10.988;2024-01-15T07:19:49;-1.50;1.00
262;DHT22;114;48.260;10.988;2024-01-15T07:22:15;-1.10;1.00
262;DHT22;114;48.260;10.988;2024-01-15T07:24:43;-1.30;1.00
262;DHT22;114;48.260;10.988;2024-01-15T07:27:09;-0.70;1.00
262;DHT22;114;48.260;10.988;2024-01-15T07:29:35;-0.60;1.00
262;DHT22;114;48.260;10.988;2024-01-15T07:32:04;-0.50;1.00
262;DHT22;114;48.260;10.988;2024-01-15T07:34:30;-0.40;1.00
262;DHT22;114;48.260;10.988;2024-01-15T07:36:57;-0.40;1.00
262;DHT22;114;48.260;10.988;2024-01-15T07:39:23;-0.40;1.00
262;DHT22;114;48.260;10.988;2024-01-15T07:41:50;-0.20;1.00
262;DHT22;114;48.260;10.988;2024-01-15T07:44:16;-0.40;1.00
262;DHT22;114;48.260;10.988;2024-01-15T07:46:46;-0.30;1.00
262;DHT22;114;48.260;10.988;2024-01-15T07:49:12;-0.30;1.00
262;DHT22;114;48.260;10.988;2024-01-15T07:51:38;-0.20;1.00
262;DHT22;114;48.260;10.988;2024-01-15T07:54:06;-0.10;1.00
262;DHT22;114;48.260;10.988;2024-01-15T07:56:32;0.00;1.00
262;DHT22;114;48.260;10.988;2024-01-15T07:58:58;0.00;1.00
262;DHT22;114;48.260;10.988;2024-01-15T08:01:23;0.10;1.00
262;DHT22;114;48.260;10.988;2024-01-15T08:03:49;0.10;1.00
262;DHT22;114;48.260;10.988;2024-01-15T08:06:15;-0.40;1.00
262;DHT22;114;48.260;10.988;2024-01-15T08:08:40;0.00;1.00
262;DHT22;114;48.260;10.988;2024-01-15T08:11:06;0.10;1.00
262;DHT22;114;48.260;10.988;2024-01-15T08:13:33;0.10;1.00
262;DHT22;114;48.260;10.988;2024-01-15T08:16:00;0.00;1.00
262;DHT22;114;48.260;10.988;2024-01-15T08:18:25;0.10;1.00
262;DHT22;114;48.260;10.988;2024-01-15T08:20:51;0.00;1.00
262;DHT22;114;48.260;10.988;2024-01-15T08:23:17;-0.10;1.00
262;DHT22;114;48.260;10.988;2024-01-15T08:25:46;0.00;1.00
262;DHT22;114;48.260;10.988;2024-01-15T08:28:11;-0.10;1.00
262;DHT22;114;48.260;10.988;2024-01-15T08:30:37;-0.50;1.00
262;DHT22;114;48.260;10.988;2024-01-15T08:33:03;-0.60;1.00
262;DHT22;114;48.260;10.988;2024-01-15T08:35:29;-0.20;1.00
262;DHT22;114;48.260;10.988;2024-01-15T08:37:55;-0.20;1.00
262;DHT22;114;48.260;10.988;2024-01-15T08:40:20;-0.30;1.00
262;DHT22;114;48.260;10.988;2024-01-15T08:42:46;-0.20;1.00
262;DHT22;114;48.260;10.988;2024-01-15T08:45:12;-0.30;1.00
262;DHT22;114;48.260;10.988;2024-01-15T08:47:39;-0.30;1.00
262;DHT22;114;48.260;10.988;2024-01-15T08:50:05;-0.40;1.00
262;DHT22;114;48.260;10.988;2024-01-15T08:52:31;-0.30;1.00
262;DHT22;114;48.260;10.988;2024-01-15T08:54:57;-0.40;1.00
262;DHT22;114;48.260;10.988;2024-01-15T08:57:24;-0.30;1.00
262;DHT22;114;48.260;10.988;2024-01-15T08:59:50;-0.40;1.00
262;DHT22;114;48.260;10.988;2024-01-15T09:02:16;-0.70;1.00
262;DHT22;114;48.260;10.988;2024-01-15T09:04:42;-0.20;1.00
262;DHT22;114;48.260;10.988;2024-01-15T09:07:08;-0.20;1.00
262;DHT22;114;48.260;10.988;2024-01-15T09:09:33;-0.10;1.00
262;DHT22;114;48.260;10.988;2024-01-15T09:12:00;-0.10;1.00
262;DHT22;114;48.260;10.988;2024-01-15T09:14:27;-0.10;1.00
262;DHT22;114;48.260;10.988;2024-01-15T09:16:55;-0.40;1.00
262;DHT22;114;48.260;10.988;2024-01-15T09:19:22;-0.10;1.00
262;DHT22;114;48.260;10.988;2024-01-15T09:21:48;-0.10;1.00
262;DHT22;114;48.260;10.988;2024-01-15T09:24:13;-0.10;1.00
262;DHT22;114;48.260;10.988;2024-01-15T09:26:39;-0.10;1.00
262;DHT22;114;48.260;10.988;2024-01-15T09:29:05;-0.10;1.00
262;DHT22;114;48.260;10.988;2024-01-15T09:31:31;0.00;1.00
262;DHT22;114;48.260;10.988;2024-01-15T09:33:56;0.00;1.00
262;DHT22;114;48.260;10.988;2024-01-15T09:36:24;-0.50;1.00
262;DHT22;114;48.260;10.988;2024-01-15T09:38:49;0.00;1.00
262;DHT22;114;48.260;10.988;2024-01-15T09:41:15;0.00;1.00
262;DHT22;114;48.260;10.988;2024-01-15T09:43:41;0.00;1.00
262;DHT22;114;48.260;10.988;2024-01-15T09:46:08;0.00;1.00
262;DHT22;114;48.260;10.988;2024-01-15T09:48:34;0.00;1.00
262;DHT22;114;48.260;10.988;2024-01-15T09:51:03;0.00;1.00
262;DHT22;114;48.260;10.988;2024-01-15T09:53:31;0.10;1.00
262;DHT22;114;48.260;10.988;2024-01-15T09:55:58;0.40;1.00
262;DHT22;114;48.260;10.988;2024-01-15T09:58:23;0.20;1.00
262;DHT22;114;48.260;10.988;2024-01-15T10:00:50;0.20;1.00
262;DHT22;114;48.260;10.988;2024-01-15T10:03:17;0.10;1.00
262;DHT22;114;48.260;10.988;2024-01-15T10:05:43;0.30;1.00
262;DHT22;114;48.260;10.988;2024-01-15T10:08:09;0.30;1.00
262;DHT22;114;48.260;10.988;2024-01-15T10:10:36;0.20;1.00
262;DHT22;114;48.260;10.988;2024-01-15T10:13:03;0.10;1.00
262;DHT22;114;48.260;10.988;2024-01-15T10:15:30;0.20;1.00
262;DHT22;114;48.260;10.988;2024-01-15T10:17:59;0.20;1.00
262;DHT22;114;48.260;10.988;2024-01-15T10:20:25;0.50;1.00
262;DHT22;114;48.260;10.988;2024-01-15T10:22:50;0.90;1.00
262;DHT22;114;48.260;10.988;2024-01-15T10:25:16;1.20;1.00
262;DHT22;114;48.260;10.988;2024-01-15T10:28:02;1.80;1.00
262;DHT22;114;48.260;10.988;2024-01-15T10:30:28;2.20;1.00
262;DHT22;114;48.260;10.988;2024-01-15T10:33:02;2.40;1.00
262;DHT22;114;48.260;10.988;2024-01-15T10:35:33;2.80;1.00
262;DHT22;114;48.260;10.988;2024-01-15T10:38:00;2.80;1.00
262;DHT22;114;48.260;10.988;2024-01-15T10:40:26;2.70;1.00
262;DHT22;114;48.260;10.988;2024-01-15T10:42:52;3.20;1.00
262;DHT22;114;48.260;10.988;2024-01-15T10:45:18;3.30;1.00
262;DHT22;114;48.260;10.988;2024-01-15T10:47:44;3.50;1.00
262;DHT22;114;48.260;10.988;2024-01-15T10:50:10;4.00;1.00
262;DHT22;114;48.260;10.988;2024-01-15T10:52:37;3.90;1.00
262;DHT22;114;48.260;10.988;2024-01-15T10:55:06;4.00;1.00
262;DHT22;114;48.260;10.988;2024-01-15T10:57:33;4.30;1.00
262;DHT22;114;48.260;10.988;2024-01-15T10:59:59;4.40;1.00
262;DHT22;114;48.260;10.988;2024-01-15T11:02:26;4.80;1.00
262;DHT22;114;48.260;10.988;2024-01-15T11:04:51;4.70;1.00
262;DHT22;114;48.260;10.988;2024-01-15T11:07:21;5.00;1.00
262;DHT22;114;48.260;10.988;2024-01-15T11:09:47;5.20;1.00
262;DHT22;114;48.260;10.988;2024-01-15T11:12:15;5.20;1.00
262;DHT22;114;48.260;10.988;2024-01-15T11:14:46;4.70;1.00
262;DHT22;114;48.260;10.988;2024-01-15T11:17:13;4.20;1.00
262;DHT22;114;48.260;10.988;2024-01-15T11:19:49;4.70;1.00
262;DHT22;114;48.260;10.988;2024-01-15T11:25:18;5.30;1.00
262;DHT22;114;48.260;10.988;2024-01-15T11:27:47;5.50;1.00
262;DHT22;114;48.260;10.988;2024-01-15T11:30:14;6.10;1.00
262;DHT22;114;48.260;10.988;2024-01-15T11:32:41;5.70;1.00
262;DHT22;114;48.260;10.988;2024-01-15T11:35:08;5.50;1.00
262;DHT22;114;48.260;10.988;2024-01-15T11:40:38;3.70;1.00
262;DHT22;114;48.260;10.988;2024-01-15T11:43:06;3.20;1.00
262;DHT22;114;48.260;10.988;2024-01-15T11:45:35;2.80;1.00
262;DHT22;114;48.260;10.988;2024-01-15T11:48:10;2.80;1.00
262;DHT22;114;48.260;10.988;2024-01-15T11:50:47;2.90;1.00
262;DHT22;114;48.260;10.988;2024-01-15T11:53:47;3.10;1.00
262;DHT22;114;48.260;10.988;2024-01-15T11:56:17;2.50;1.00
262;DHT22;114;48.260;10.988;2024-01-15T11:58:44;4.30;1.00
262;DHT22;114;48.260;10.988;2024-01-15T12:01:13;6.20;1.00
262;DHT22;114;48.260;10.988;2024-01-15T12:03:39;7.50;1.00
262;DHT22;114;48.260;10.988;2024-01-15T12:06:09;8.00;1.00
262;DHT22;114;48.260;10.988;2024-01-15T12:08:35;7.90;1.00
262;DHT22;114;48.260;10.988;2024-01-15T12:11:10;8.70;1.00
262;DHT22;114;48.260;10.988;2024-01-15T12:13:36;9.10;1.00
262;DHT22;114;48.260;10.988;2024-01-15T12:16:02;9.40;1.00
262;DHT22;114;48.260;10.988;2024-01-15T12:18:31;9.00;1.00
262;DHT22;114;48.260;10.988;2024-01-15T12:20:57;8.70;1.00
262;DHT22;114;48.260;10.988;2024-01-15T12:23:24;8.80;1.00
262;DHT22;114;48.260;10.988;2024-01-15T12:25:50;7.70;1.00
262;DHT22;114;48.260;10.988;2024-01-15T12:28:16;6.10;1.00
262;DHT22;114;48.260;10.988;2024-01-15T12:30:42;5.20;1.00
262;DHT22;114;48.260;10.988;2024-01-15T12:33:08;4.80;1.00
262;DHT22;114;48.260;10.988;2024-01-15T12:35:34;4.00;1.00
262;DHT22;114;48.260;10.988;2024-01-15T12:38:01;3.30;1.00
262;DHT22;114;48.260;10.988;2024-01-15T12:40:29;3.00;1.00
262;DHT22;114;48.260;10.988;2024-01-15T12:42:56;3.00;1.00
262;DHT22;114;48.260;10.988;2024-01-15T12:45:23;2.80;1.00
262;DHT22;114;48.260;10.988;2024-01-15T12:47:49;2.60;1.00
262;DHT22;114;48.260;10.988;2024-01-15T12:50:16;2.50;1.00
262;DHT22;114;48.260;10.988;2024-01-15T12:52:42;2.50;1.00
262;DHT22;114;48.260;10.988;2024-01-15T12:55:08;2.50;1.00
262;DHT22;114;48.260;10.988;2024-01-15T12:57:35;2.30;1.00
262;DHT22;114;48.260;10.988;2024-01-15T13:00:02;2.30;1.00
262;DHT22;114;48.260;10.988;2024-01-15T13:02:34;2.20;1.00
262;DHT22;114;48.260;10.988;2024-01-15T13:05:00;2.10;1.00
262;DHT22;114;48.260;10.988;2024-01-15T13:07:27;2.00;1.00
262;DHT22;114;48.260;10.988;2024-01-15T13:09:52;2.00;1.00
262;DHT22;114;48.260;10.988;2024-01-15T13:12:20;2.00;1.00
262;DHT22;114;48.260;10.988;2024-01-15T13:14:46;2.00;1.00
262;DHT22;114;48.260;10.988;2024-01-15T13:17:12;1.90;1.00
262;DHT22;114;48.260;10.988;2024-01-15T13:19:40;1.70;1.00
262;DHT22;114;48.260;10.988;2024-01-15T13:22:05;1.70;1.00
262;DHT22;114;48.260;10.988;2024-01-15T13:24:34;1.70;1.00
262;DHT22;114;48.260;10.988;2024-01-15T13:27:02;1.70;1.00
262;DHT22;114;48.260;10.988;2024-01-15T13:29:29;1.70;1.00
262;DHT22;114;48.260;10.988;2024-01-15T13:31:55;1.60;1.00
262;DHT22;114;48.260;10.988;2024-01-15T13:34:21;1.60;1.00
262;DHT22;114;48.260;10.988;2024-01-15T13:36:46;1.50;1.00
262;DHT22;114;48.260;10.988;2024-01-15T13:39:12;1.50;1.00
262;DHT22;114;48.260;10.988;2024-01-15T13:41:38;1.30;1.00
262;DHT22;114;48.260;10.988;2024-01-15T13:44:04;1.30;1.00
262;DHT22;114;48.260;10.988;2024-01-15T13:46:30;1.30;1.00
262;DHT22;114;48.260;10.988;2024-01-15T13:48:56;1.30;1.00
262;DHT22;114;48.260;10.988;2024-01-15T13:51:22;1.20;1.00
262;DHT22;114;48.260;10.988;2024-01-15T13:53:49;1.20;1.00
262;DHT22;114;48.260;10.988;2024-01-15T13:56:15;1.30;1.00
262;DHT22;114;48.260;10.988;2024-01-15T13:58:42;1.30;1.00
262;DHT22;114;48.260;10.988;2024-01-15T14:01:08;1.20;1.00
262;DHT22;114;48.260;10.988;2024-01-15T14:03:34;1.20;1.00
262;DHT22;114;48.260;10.988;2024-01-15T14:06:00;1.20;1.00
262;DHT22;114;48.260;10.988;2024-01-15T14:08:28;1.20;1.00
262;DHT22;114;48.260;10.988;2024-01-15T14:10:53;0.90;1.00
262;DHT22;114;48.260;10.988;2024-01-15T14:13:21;1.20;1.00
262;DHT22;114;48.260;10.988;2024-01-15T14:15:47;1.10;1.00
262;DHT22;114;48.260;10.988;2024-01-15T14:18:16;1.10;1.00
262;DHT22;114;48.260;10.988;2024-01-15T14:20:42;1.10;1.00
262;DHT22;114;48.260;10.988;2024-01-15T14:23:08;1.10;1.00
262;DHT22;114;48.260;10.988;2024-01-15T14:25:33;1.10;1.00
262;DHT22;114;48.260;10.988;2024-01-15T14:28:00;1.10;1.00
262;DHT22;114;48.260;10.988;2024-01-15T14:30:25;1.10;1.00
262;DHT22;114;48.260;10.988;2024-01-15T14:32:51;1.20;1.00
262;DHT22;114;48.260;10.988;2024-01-15T14:35:16;1.20;1.00
262;DHT22;114;48.260;10.988;2024-01-15T14:37:42;1.20;1.00
262;DHT22;114;48.260;10.988;2024-01-15T14:40:09;1.10;1.00
262;DHT22;114;48.260;10.988;2024-01-15T14:42:38;0.70;1.00
262;DHT22;114;48.260;10.988;2024-01-15T14:45:05;1.10;1.00
262;DHT22;114;48.260;10.988;2024-01-15T14:47:37;1.00;1.00
262;DHT22;114;48.260;10.988;2024-01-15T14:50:07;1.00;1.00
262;DHT22;114;48.260;10.988;2024-01-15T14:52:33;0.90;1.00
262;DHT22;114;48.260;10.988;2024-01-15T14:55:00;1.00;1.00
262;DHT22;114;48.260;10.988;2024-01-15T14:57:25;1.00;1.00
262;DHT22;114;48.260;10.988;2024-01-15T14:59:51;0.80;1.00
262;DHT22;114;48.260;10.988;2024-01-15T15:02:17;1.00;1.00
262;DHT22;114;48.260;10.988;2024-01-15T15:04:44;1.00;1.00
262;DHT22;114;48.260;10.988;2024-01-15T15:07:10;1.00;1.00
262;DHT22;114;48.260;10.988;2024-01-15T15:09:36;1.00;1.00
262;DHT22;114;48.260;10.988;2024-01-15T15:12:06;1.00;1.00
262;DHT22;114;48.260;10.988;2024-01-15T15:14:32;0.90;1.00
262;DHT22;114;48.260;10.988;2024-01-15T15:17:06;0.90;1.00
262;DHT22;114;48.260;10.988;2024-01-15T15:19:32;0.80;1.00
262;DHT22;114;48.260;10.988;2024-01-15T15:22:01;0.70;1.00
262;DHT22;114;48.260;10.988;2024-01-15T15:24:27;0.70;1.00
262;DHT22;114;48.260;10.988;2024-01-15T15:26:53;0.40;1.00
262;DHT22;114;48.260;10.988;2024-01-15T15:29:18;0.40;1.00
262;DHT22;114;48.260;10.988;2024-01-15T15:31:45;0.30;1.00
262;DHT22;114;48.260;10.988;2024-01-15T15:34:11;0.30;1.00
262;DHT22;114;48.260;10.988;2024-01-15T15:36:37;0.40;1.00
262;DHT22;114;48.260;10.988;2024-01-15T15:39:02;0.20;1.00
262;DHT22;114;48.260;10.988;2024-01-15T15:41:28;0.10;1.00
262;DHT22;114;48.260;10.988;2024-01-15T15:43:54;0.10;1.00
262;DHT22;114;48.260;10.988;2024-01-15T15:46:20;0.00;1.00
262;DHT22;114;48.260;10.988;2024-01-15T15:48:46;0.00;1.00
262;DHT22;114;48.260;10.988;2024-01-15T15:51:12;0.00;1.00
262;DHT22;114;48.260;10.988;2024-01-15T15:53:37;-0.10;1.00
262;DHT22;114;48.260;10.988;2024-01-15T15:56:03;-0.40;1.00
262;DHT22;114;48.260;10.988;2024-01-15T15:58:30;-0.10;1.00
262;DHT22;114;48.260;10.988;2024-01-15T16:00:57;-0.10;1.00
262;DHT22;114;48.260;10.988;2024-01-15T16:03:22;-0.20;1.00
262;DHT22;114;48.260;10.988;2024-01-15T16:05:48;-0.20;1.00
262;DHT22;114;48.260;10.988;2024-01-15T16:08:14;-0.20;1.00
262;DHT22;114;48.260;10.988;2024-01-15T16:10:40;-0.10;1.00
262;DHT22;114;48.260;10.988;2024-01-15T16:13:06;-0.20;1.00
262;DHT22;114;48.260;10.988;2024-01-15T16:15:32;-0.20;1.00
262;DHT22;114;48.260;10.988;2024-01-15T16:18:00;-0.20;1.00
262;DHT22;114;48.260;10.988;2024-01-15T16:20:25;-0.20;1.00
262;DHT22;114;48.260;10.988;2024-01-15T16:22:51;-0.20;1.00
262;DHT22;114;48.260;10.988;2024-01-15T16:25:17;-0.70;1.00
262;DHT22;114;48.260;10.988;2024-01-15T16:27:43;-0.20;1.00
262;DHT22;114;48.260;10.988;2024-01-15T16:30:09;-0.60;1.00
262;DHT22;114;48.260;10.988;2024-01-15T16:32:36;-0.10;1.00
262;DHT22;114;48.260;10.988;2024-01-15T16:35:01;-0.20;1.00
262;DHT22;114;48.260;10.988;2024-01-15T16:37:28;-0.20;1.00
262;DHT22;114;48.260;10.988;2024-01-15T16:39:54;-0.20;1.00
262;DHT22;114;48.260;10.988;2024-01-15T16:42:19;-0.20;1.00